createdAt,value
2019-01-27T00:02:15.705Z,7.60
2019-01-27T00:04:45.566Z,7.50
2019-01-27T00:07:15.673Z,7.60
2019-01-27T00:09:47.285Z,7.50
2019-01-27T00:12:17.242Z,7.50
2019-01-27T00:14:47.113Z,7.50
2019-01-27T00:17:17.051Z,7.40
2019-01-27T00:19:46.872Z,7.40
2019-01-27T00:22:18.173Z,7.40
2019-01-27T00:24:48.162Z,7.40
2019-01-27T00:27:18.122Z,7.40
2019-01-27T00:29:48.290Z,7.40
2019-01-27T00:32:18.158Z,7.50
2019-01-27T00:34:48.080Z,7.60
2019-01-27T00:37:17.929Z,7.60
2019-01-27T00:39:47.812Z,7.60
2019-01-27T00:42:18.096Z,7.60
2019-01-27T00:44:48.153Z,7.60
2019-01-27T00:47:18.060Z,7.60
2019-01-27T00:49:47.775Z,7.60
2019-01-27T00:52:19.452Z,7.60
2019-01-27T00:54:51.022Z,7.60
2019-01-27T00:57:20.904Z,7.60
2019-01-27T00:59:51.012Z,7.70
2019-01-27T01:02:20.930Z,7.70
2019-01-27T01:04:50.818Z,7.80
2019-01-27T01:07:21.055Z,7.80
2019-01-27T01:09:51.446Z,7.80
2019-01-27T01:12:21.426Z,7.70
2019-01-27T01:14:52.030Z,7.70
2019-01-27T01:17:21.910Z,7.70
2019-01-27T01:19:52.225Z,7.70
2019-01-27T01:22:22.265Z,7.70
2019-01-27T01:24:52.490Z,7.80
2019-01-27T01:27:22.550Z,7.80
2019-01-27T01:29:52.906Z,7.80
2019-01-27T01:32:23.392Z,7.80
2019-01-27T01:34:53.611Z,7.80
2019-01-27T01:37:24.064Z,7.80
2019-01-27T01:39:54.483Z,7.80
2019-01-27T01:42:24.649Z,7.70
2019-01-27T01:44:54.645Z,7.70
2019-01-27T01:47:24.654Z,7.60
2019-01-27T01:49:55.039Z,7.60
2019-01-27T01:52:25.189Z,7.60
2019-01-27T01:54:55.313Z,7.60
2019-01-27T01:57:25.245Z,7.60
2019-01-27T01:59:55.489Z,7.60
2019-01-27T02:02:27.167Z,7.60
2019-01-27T02:04:56.990Z,7.60
2019-01-27T02:07:27.336Z,7.70
2019-01-27T02:09:58.913Z,7.70
2019-01-27T02:12:28.572Z,7.70
2019-01-27T02:14:58.509Z,7.70
2019-01-27T02:17:28.289Z,7.70
2019-01-27T02:19:58.256Z,7.70
2019-01-27T02:22:29.671Z,7.70
2019-01-27T02:24:59.919Z,7.70
2019-01-27T02:27:29.977Z,7.70
2019-01-27T02:29:59.865Z,7.70
2019-01-27T02:32:29.744Z,7.70
2019-01-27T02:35:01.332Z,7.70
2019-01-27T02:37:31.339Z,7.70
2019-01-27T02:40:02.054Z,7.70
2019-01-27T02:42:32.068Z,7.70
2019-01-27T02:45:02.047Z,7.70
2019-01-27T02:47:32.284Z,7.70
2019-01-27T02:50:02.527Z,7.70
2019-01-27T02:52:32.622Z,7.80
2019-01-27T02:55:02.652Z,7.70
2019-01-27T02:57:33.950Z,7.70
2019-01-27T03:00:05.241Z,7.70
2019-01-27T03:02:35.442Z,7.70
2019-01-27T03:05:15.703Z,7.70
2019-01-27T03:07:45.822Z,7.70
2019-01-27T03:10:16.326Z,7.70
2019-01-27T03:12:46.180Z,7.70
2019-01-27T03:15:18.246Z,7.70
2019-01-27T03:17:48.159Z,7.70
2019-01-27T03:20:18.091Z,7.70
2019-01-27T03:22:48.188Z,7.70
2019-01-27T03:25:18.273Z,7.70
2019-01-27T03:27:48.174Z,7.70
2019-01-27T03:30:18.950Z,7.70
2019-01-27T03:32:48.823Z,7.70
2019-01-27T03:35:18.777Z,7.70
2019-01-27T03:37:48.742Z,7.70
2019-01-27T03:40:18.943Z,7.70
2019-01-27T03:42:49.220Z,7.70
2019-01-27T03:45:19.205Z,7.70
2019-01-27T03:47:49.146Z,7.70
2019-01-27T03:50:19.269Z,7.70
2019-01-27T03:52:49.093Z,7.70
2019-01-27T03:55:19.696Z,7.70
2019-01-27T03:57:49.842Z,7.80
2019-01-27T04:00:21.236Z,7.80
2019-01-27T04:02:51.346Z,7.80
2019-01-27T04:05:21.772Z,7.70
2019-01-27T04:07:52.762Z,7.70
2019-01-27T04:10:23.025Z,7.60
2019-01-27T04:12:52.893Z,7.50
2019-01-27T04:15:23.202Z,7.40
2019-01-27T04:17:53.040Z,7.30
2019-01-27T04:20:23.041Z,7.30
2019-01-27T04:22:53.023Z,7.20
2019-01-27T04:25:23.934Z,7.20
2019-01-27T04:27:54.000Z,7.10
2019-01-27T04:30:30.026Z,7.20
2019-01-27T04:33:00.227Z,7.20
2019-01-27T04:35:30.081Z,7.10
2019-01-27T04:38:01.780Z,7.10
2019-01-27T04:40:31.754Z,7.00
2019-01-27T04:43:02.760Z,7.00
2019-01-27T04:45:35.346Z,6.90
2019-01-27T04:48:06.557Z,6.90
2019-01-27T04:50:36.401Z,6.90
2019-01-27T04:53:07.048Z,6.90
2019-01-27T04:55:37.153Z,6.90
2019-01-27T04:58:07.483Z,7.00
2019-01-27T05:00:37.585Z,6.90
2019-01-27T05:03:28.507Z,6.90
2019-01-27T05:05:58.380Z,7.00
2019-01-27T05:08:28.133Z,6.90
2019-01-27T05:10:57.962Z,6.90
2019-01-27T05:13:27.858Z,6.90
2019-01-27T05:15:59.099Z,6.90
2019-01-27T05:18:28.947Z,6.90
2019-01-27T05:20:58.713Z,6.90
2019-01-27T05:23:28.566Z,6.90
2019-01-27T05:25:58.650Z,6.80
2019-01-27T05:28:28.716Z,6.80
2019-01-27T05:30:58.987Z,6.70
2019-01-27T05:33:28.864Z,6.70
2019-01-27T05:35:59.189Z,6.70
2019-01-27T05:38:29.245Z,6.70
2019-01-27T05:41:00.666Z,6.70
2019-01-27T05:43:30.676Z,6.70
2019-01-27T05:46:00.724Z,6.70
2019-01-27T05:48:30.564Z,6.70
2019-01-27T05:51:00.672Z,6.70
2019-01-27T05:53:32.177Z,6.70
2019-01-27T05:56:04.158Z,6.70
2019-01-27T05:58:34.350Z,6.70
2019-01-27T06:01:04.538Z,6.70
2019-01-27T06:03:34.473Z,6.70
2019-01-27T06:06:04.737Z,6.60
2019-01-27T06:08:34.421Z,6.70
2019-01-27T06:11:04.344Z,6.70
2019-01-27T06:13:36.308Z,6.60
2019-01-27T06:16:06.174Z,6.60
2019-01-27T06:18:36.118Z,6.60
2019-01-27T06:21:07.911Z,6.60
2019-01-27T06:23:37.978Z,6.70
2019-01-27T06:26:07.991Z,6.70
2019-01-27T06:28:37.993Z,6.70
2019-01-27T06:31:08.078Z,6.70
2019-01-27T06:33:46.039Z,6.70
2019-01-27T06:36:16.001Z,6.70
2019-01-27T06:38:46.522Z,6.70
2019-01-27T06:41:16.765Z,6.60
2019-01-27T06:43:46.496Z,6.60
2019-01-27T06:46:16.496Z,6.60
2019-01-27T06:48:46.392Z,6.50
2019-01-27T06:51:16.177Z,6.50
2019-01-27T06:53:46.104Z,6.50
2019-01-27T06:56:16.125Z,6.50
2019-01-27T06:59:17.396Z,6.50
2019-01-27T07:02:00.910Z,6.60
2019-01-27T07:04:50.037Z,6.70
2019-01-27T07:07:34.866Z,6.80
2019-01-27T07:10:30.985Z,6.80
2019-01-27T07:13:26.042Z,6.90
2019-01-27T07:16:24.109Z,6.80
2019-01-27T07:19:19.264Z,6.90
2019-01-27T07:22:20.996Z,6.90
2019-01-27T07:25:09.078Z,6.90
2019-01-27T07:27:55.317Z,6.80
2019-01-27T07:30:43.097Z,6.80
2019-01-27T07:33:30.723Z,6.80
2019-01-27T07:36:13.377Z,6.80
2019-01-27T07:38:49.697Z,6.80
2019-01-27T07:41:45.006Z,6.80
2019-01-27T07:44:25.574Z,6.80
2019-01-27T07:47:07.158Z,6.80
2019-01-27T07:50:08.467Z,6.70
2019-01-27T07:52:57.774Z,6.80
2019-01-27T07:55:37.474Z,6.80
2019-01-27T07:58:25.260Z,6.90
2019-01-27T08:01:14.015Z,7.00
2019-01-27T08:04:02.156Z,7.00
2019-01-27T08:06:54.961Z,7.00
2019-01-27T08:09:34.004Z,7.10
2019-01-27T08:12:31.291Z,7.10
2019-01-27T08:15:26.281Z,7.20
2019-01-27T08:18:12.851Z,7.40
2019-01-27T08:21:01.188Z,7.40
2019-01-27T08:24:01.875Z,7.50
2019-01-27T08:26:49.714Z,7.60
2019-01-27T08:29:35.983Z,7.70
2019-01-27T08:32:13.563Z,7.80
2019-01-27T08:35:15.219Z,7.90
2019-01-27T08:38:16.595Z,7.90
2019-01-27T08:40:57.790Z,8.00
2019-01-27T08:43:55.901Z,8.30
2019-01-27T08:46:42.216Z,8.40
2019-01-27T08:49:14.707Z,8.60
2019-01-27T08:51:44.666Z,8.60
2019-01-27T08:54:14.729Z,8.60
2019-01-27T08:56:46.691Z,8.50
2019-01-27T08:59:16.542Z,8.50
2019-01-27T09:02:03.053Z,8.50
2019-01-27T09:04:52.310Z,8.60
2019-01-27T09:07:40.055Z,8.60
2019-01-27T09:10:45.042Z,8.70
2019-01-27T09:13:49.108Z,8.70
2019-01-27T09:16:53.167Z,8.70
2019-01-27T09:19:32.529Z,8.70
2019-01-27T09:22:15.100Z,8.80
2019-01-27T09:25:04.068Z,8.80
2019-01-27T09:27:51.962Z,8.80
2019-01-27T09:30:50.338Z,8.80
2019-01-27T09:33:41.955Z,8.80
2019-01-27T09:36:29.497Z,8.70
2019-01-27T09:39:26.939Z,8.70
2019-01-27T09:42:24.914Z,8.60
2019-01-27T09:45:01.771Z,8.60
2019-01-27T09:47:46.833Z,8.60
2019-01-27T09:50:31.694Z,8.70
2019-01-27T09:53:17.797Z,8.80
2019-01-27T09:55:57.100Z,8.90
2019-01-27T09:58:46.125Z,9.00
2019-01-27T10:01:30.548Z,8.90
2019-01-27T10:04:15.399Z,8.80
2019-01-27T10:07:07.476Z,8.80
2019-01-27T10:09:46.369Z,8.90
2019-01-27T10:12:34.245Z,8.90
2019-01-27T10:15:23.767Z,9.00
2019-01-27T10:17:58.989Z,8.90
2019-01-27T10:20:51.084Z,9.00
2019-01-27T10:23:33.226Z,9.00
2019-01-27T10:26:14.874Z,8.90
2019-01-27T10:29:16.230Z,8.80
2019-01-27T10:31:53.109Z,8.70
2019-01-27T10:34:54.438Z,8.80
2019-01-27T10:37:45.218Z,8.80
2019-01-27T10:40:21.175Z,8.90
2019-01-27T10:43:19.346Z,8.90
2019-01-27T10:46:07.215Z,8.90
2019-01-27T10:48:55.161Z,8.80
2019-01-27T10:51:38.126Z,8.80
2019-01-27T10:54:28.164Z,8.90
2019-01-27T10:57:26.622Z,9.00
2019-01-27T11:00:09.254Z,9.00
2019-01-27T11:03:04.293Z,9.10
2019-01-27T11:06:08.574Z,9.20
2019-01-27T11:08:53.028Z,9.10
2019-01-27T11:11:47.857Z,9.10
2019-01-27T11:14:33.561Z,9.00
2019-01-27T11:17:18.337Z,9.00
2019-01-27T11:19:54.444Z,9.10
2019-01-27T11:22:43.806Z,9.10
2019-01-27T11:25:34.210Z,9.00
2019-01-27T11:28:19.157Z,9.00
2019-01-27T11:31:26.917Z,9.00
2019-01-27T11:34:25.338Z,9.00
2019-01-27T11:37:20.449Z,9.00
2019-01-27T11:40:00.461Z,9.00
2019-01-27T11:42:52.848Z,9.00
2019-01-27T11:45:38.828Z,9.00
2019-01-27T11:48:17.916Z,9.00
2019-01-27T11:50:55.006Z,9.10
2019-01-27T11:53:25.285Z,9.30
2019-01-27T11:55:55.721Z,9.30
2019-01-27T11:58:26.450Z,9.40
2019-01-27T12:01:00.037Z,9.50
2019-01-27T12:03:30.229Z,9.50
2019-01-27T12:06:00.682Z,9.60
2019-01-27T12:08:31.180Z,9.70
2019-01-27T12:11:01.653Z,9.80
2019-01-27T12:13:32.991Z,9.90
2019-01-27T12:16:03.457Z,9.90
2019-01-27T12:18:34.294Z,9.90
2019-01-27T12:21:04.849Z,9.80
2019-01-27T12:23:35.148Z,9.70
2019-01-27T12:26:05.754Z,9.70
2019-01-27T12:28:36.228Z,9.70
2019-01-27T12:31:06.662Z,9.70
2019-01-27T12:33:37.076Z,9.80
2019-01-27T12:36:07.437Z,9.90
2019-01-27T12:38:38.429Z,9.90
2019-01-27T12:41:08.677Z,9.70
2019-01-27T12:43:39.130Z,9.80
2019-01-27T12:46:09.528Z,10.10
2019-01-27T12:48:39.936Z,10.40
2019-01-27T12:51:10.196Z,10.60
2019-01-27T12:53:40.533Z,10.80
2019-01-27T12:56:10.998Z,11.00
2019-01-27T12:58:41.283Z,10.90
2019-01-27T13:01:13.691Z,10.70
2019-01-27T13:03:44.381Z,10.60
2019-01-27T13:06:14.641Z,10.40
2019-01-27T13:08:45.082Z,10.40
2019-01-27T13:11:15.221Z,10.40
2019-01-27T13:13:45.642Z,10.20
2019-01-27T13:16:16.395Z,10.20
2019-01-27T13:18:47.067Z,10.20
2019-01-27T13:21:17.573Z,10.20
2019-01-27T13:23:47.955Z,10.10
2019-01-27T13:26:18.389Z,10.00
2019-01-27T13:28:48.807Z,10.10
2019-01-27T13:31:20.840Z,10.10
2019-01-27T13:33:51.008Z,10.20
2019-01-27T13:36:22.079Z,10.30
2019-01-27T13:38:52.640Z,10.30
2019-01-27T13:41:23.239Z,10.10
2019-01-27T13:43:53.697Z,10.10
2019-01-27T13:46:24.357Z,10.00
2019-01-27T13:48:54.777Z,10.10
2019-01-27T13:51:25.017Z,10.00
2019-01-27T13:53:55.406Z,9.90
2019-01-27T13:56:25.778Z,9.80
2019-01-27T13:58:56.357Z,9.80
2019-01-27T14:01:26.940Z,9.80
2019-01-27T14:03:57.246Z,9.70
2019-01-27T14:06:27.887Z,9.60
2019-01-27T14:09:00.473Z,9.40
2019-01-27T14:11:30.786Z,9.30
2019-01-27T14:14:01.173Z,9.20
2019-01-27T14:16:31.604Z,9.00
2019-01-27T14:19:02.056Z,8.90
2019-01-27T14:21:32.659Z,8.80
2019-01-27T14:24:03.157Z,8.80
2019-01-27T14:26:33.482Z,8.80
2019-01-27T14:29:04.030Z,8.80
2019-01-27T14:31:34.474Z,8.80
2019-01-27T14:34:05.189Z,8.60
2019-01-27T14:36:35.555Z,8.60
2019-01-27T14:39:08.823Z,8.50
2019-01-27T14:41:39.168Z,8.40
2019-01-27T14:44:09.620Z,8.40
2019-01-27T14:46:39.806Z,8.40
2019-01-27T14:49:10.274Z,8.40
2019-01-27T14:51:40.871Z,8.40
2019-01-27T14:54:11.280Z,8.40
2019-01-27T14:56:41.658Z,8.40
2019-01-27T14:59:12.248Z,8.40
2019-01-27T15:01:42.514Z,8.40
2019-01-27T15:04:12.921Z,8.30
2019-01-27T15:06:43.281Z,8.00
2019-01-27T15:09:13.738Z,7.50
2019-01-27T15:11:50.685Z,7.10
2019-01-27T15:14:24.484Z,6.80
2019-01-27T15:16:54.976Z,6.60
2019-01-27T15:19:25.430Z,6.40
2019-01-27T15:21:55.914Z,6.30
2019-01-27T15:24:26.430Z,6.30
2019-01-27T15:26:56.942Z,6.30
2019-01-27T15:29:29.949Z,6.30
2019-01-27T15:32:00.686Z,6.30
2019-01-27T15:34:31.748Z,6.30
2019-01-27T15:37:02.230Z,6.20
2019-01-27T15:39:32.761Z,6.20
2019-01-27T15:42:03.329Z,6.10
2019-01-27T15:44:33.688Z,6.10
2019-01-27T15:47:04.242Z,6.00
2019-01-27T15:49:34.495Z,5.90
2019-01-27T15:52:05.115Z,5.90
2019-01-27T15:54:35.373Z,5.80
2019-01-27T15:57:05.839Z,5.80
2019-01-27T15:59:36.511Z,5.80
2019-01-27T16:02:06.874Z,5.70
2019-01-27T16:04:37.338Z,5.70
2019-01-27T16:07:07.759Z,5.70
2019-01-27T16:09:38.306Z,5.60
2019-01-27T16:12:08.722Z,5.60
2019-01-27T16:14:39.389Z,5.50
2019-01-27T16:17:25.747Z,5.50
2019-01-27T16:19:56.898Z,5.40
2019-01-27T16:22:27.910Z,5.40
2019-01-27T16:24:58.231Z,5.30
2019-01-27T16:27:28.726Z,5.30
2019-01-27T16:30:05.705Z,5.20
2019-01-27T16:32:38.568Z,5.10
2019-01-27T16:35:14.350Z,5.10
2019-01-27T16:37:44.819Z,5.00
2019-01-27T16:40:16.846Z,5.00
2019-01-27T16:42:47.365Z,5.00
2019-01-27T16:45:17.917Z,5.00
2019-01-27T16:47:48.483Z,5.00
2019-01-27T16:50:19.540Z,5.00
2019-01-27T16:52:50.504Z,5.00
2019-01-27T16:55:21.172Z,4.90
2019-01-27T16:57:51.781Z,4.80
2019-01-27T17:00:27.045Z,4.80
2019-01-27T17:02:57.503Z,4.80
2019-01-27T17:05:28.042Z,4.80
2019-01-27T17:07:58.368Z,4.80
2019-01-27T17:10:29.117Z,4.80
2019-01-27T17:12:59.667Z,4.70
2019-01-27T17:15:30.713Z,4.70
2019-01-27T17:18:01.220Z,4.70
2019-01-27T17:20:31.781Z,4.70
2019-01-27T17:23:02.218Z,4.70
2019-01-27T17:25:32.462Z,4.70
2019-01-27T17:28:02.948Z,4.70
2019-01-27T17:30:33.545Z,4.60
2019-01-27T17:33:03.871Z,4.60
2019-01-27T17:35:35.410Z,4.60
2019-01-27T17:38:06.007Z,4.50
2019-01-27T17:40:36.362Z,4.60
2019-01-27T17:43:06.855Z,4.50
2019-01-27T17:45:37.246Z,4.50
2019-01-27T17:48:07.552Z,4.50
2019-01-27T17:50:38.018Z,4.40
2019-01-27T17:53:08.446Z,4.50
2019-01-27T17:55:43.141Z,4.40
2019-01-27T17:58:41.507Z,4.30
2019-01-27T18:01:45.930Z,4.30
2019-01-27T18:04:32.101Z,4.30
2019-01-27T18:07:08.502Z,4.30
2019-01-27T18:09:57.718Z,4.30
2019-01-27T18:12:47.032Z,4.30
2019-01-27T18:15:17.344Z,4.30
2019-01-27T18:17:48.801Z,4.30
2019-01-27T18:20:19.315Z,4.30
2019-01-27T18:22:49.743Z,4.30
2019-01-27T18:25:20.277Z,4.30
2019-01-27T18:27:50.671Z,4.30
2019-01-27T18:30:22.683Z,4.30
2019-01-27T18:32:53.261Z,4.30
2019-01-27T18:35:23.770Z,4.30
2019-01-27T18:37:54.156Z,4.30
2019-01-27T18:40:24.547Z,4.30
2019-01-27T18:42:54.801Z,4.30
2019-01-27T18:45:25.284Z,4.30
2019-01-27T18:47:55.876Z,4.20
2019-01-27T18:50:26.323Z,4.20
2019-01-27T18:53:15.719Z,4.20
2019-01-27T18:56:05.234Z,4.10
2019-01-27T18:58:54.564Z,4.10
2019-01-27T19:01:39.272Z,4.10
2019-01-27T19:04:18.562Z,4.10
2019-01-27T19:07:06.942Z,4.10
2019-01-27T19:09:53.488Z,4.20
2019-01-27T19:12:37.321Z,4.20
2019-01-27T19:15:29.741Z,4.20
2019-01-27T19:18:17.312Z,4.10
2019-01-27T19:20:56.960Z,4.20
2019-01-27T19:23:45.152Z,4.10
2019-01-27T19:26:34.305Z,4.10
2019-01-27T19:29:16.173Z,4.00
2019-01-27T19:32:08.542Z,4.00
2019-01-27T19:34:56.854Z,4.00
2019-01-27T19:37:55.941Z,4.00
2019-01-27T19:40:47.814Z,4.00
2019-01-27T19:43:36.116Z,4.00
2019-01-27T19:46:43.608Z,4.10
2019-01-27T19:49:34.732Z,4.10
2019-01-27T19:52:24.137Z,4.10
2019-01-27T19:55:12.442Z,4.10
2019-01-27T19:58:01.760Z,4.10
2019-01-27T20:00:40.507Z,4.20
2019-01-27T20:03:29.840Z,4.20
2019-01-27T20:06:19.219Z,4.20
2019-01-27T20:09:20.823Z,4.10
2019-01-27T20:12:16.656Z,4.10
2019-01-27T20:14:56.459Z,4.00
2019-01-27T20:17:58.109Z,4.00
2019-01-27T20:20:46.442Z,3.90
2019-01-27T20:23:29.107Z,3.90
2019-01-27T20:26:12.222Z,3.80
2019-01-27T20:29:07.905Z,3.80
2019-01-27T20:31:59.894Z,3.80
2019-01-27T20:34:52.206Z,3.70
2019-01-27T20:37:37.856Z,3.70
2019-01-27T20:40:19.685Z,3.80
2019-01-27T20:42:57.373Z,3.70
2019-01-27T20:46:04.949Z,3.70
2019-01-27T20:48:52.934Z,3.70
2019-01-27T20:51:35.799Z,3.80
2019-01-27T20:54:28.163Z,3.80
2019-01-27T20:57:17.467Z,3.80
2019-01-27T21:00:06.768Z,3.80
2019-01-27T21:02:45.365Z,3.90
2019-01-27T21:05:32.461Z,3.90
2019-01-27T21:08:11.170Z,3.90
2019-01-27T21:11:09.658Z,3.90
2019-01-27T21:14:05.019Z,3.90
2019-01-27T21:16:42.723Z,3.80
2019-01-27T21:19:36.386Z,3.80
2019-01-27T21:22:06.766Z,3.80
2019-01-27T21:24:37.125Z,3.80
2019-01-27T21:27:07.557Z,3.70
2019-01-27T21:29:38.161Z,3.70
2019-01-27T21:32:08.567Z,3.80
2019-01-27T21:34:38.836Z,3.80
2019-01-27T21:37:09.163Z,3.80
2019-01-27T21:39:39.782Z,3.80
2019-01-27T21:42:12.894Z,3.80
2019-01-27T21:44:43.074Z,3.70
2019-01-27T21:47:13.524Z,3.70
2019-01-27T21:49:44.024Z,3.70
2019-01-27T21:52:14.587Z,3.80
2019-01-27T21:54:44.850Z,3.90
2019-01-27T21:57:15.176Z,4.00
2019-01-27T21:59:45.454Z,3.90
2019-01-27T22:02:15.740Z,3.80
2019-01-27T22:04:45.768Z,3.80
2019-01-27T22:07:16.410Z,3.70
2019-01-27T22:09:47.127Z,3.60
2019-01-27T22:12:17.262Z,3.60
2019-01-27T22:14:47.260Z,3.60
2019-01-27T22:17:17.058Z,3.60
2019-01-27T22:19:47.709Z,3.60
2019-01-27T22:22:19.196Z,3.60
2019-01-27T22:24:49.527Z,3.60
2019-01-27T22:27:19.402Z,3.70
2019-01-27T22:29:49.341Z,3.80
2019-01-27T22:32:19.229Z,3.90
2019-01-27T22:34:49.185Z,3.90
2019-01-27T22:37:19.353Z,4.00
2019-01-27T22:39:51.012Z,4.00
2019-01-27T22:42:21.127Z,4.10
2019-01-27T22:44:51.037Z,4.10
2019-01-27T22:47:21.460Z,4.10
2019-01-27T22:49:51.494Z,4.10
2019-01-27T22:52:21.569Z,4.00
2019-01-27T22:54:51.465Z,4.00
2019-01-27T22:57:21.329Z,4.00
2019-01-27T22:59:51.462Z,4.00
2019-01-27T23:02:22.788Z,4.10
2019-01-27T23:04:52.737Z,4.00
2019-01-27T23:07:22.649Z,4.00
2019-01-27T23:09:52.596Z,3.90
2019-01-27T23:12:23.011Z,3.80
2019-01-27T23:14:54.635Z,3.90
2019-01-27T23:17:26.456Z,3.90
2019-01-27T23:19:56.612Z,3.90
2019-01-27T23:22:26.872Z,3.90
2019-01-27T23:24:57.365Z,3.90
2019-01-27T23:27:27.267Z,4.00
2019-01-27T23:29:57.250Z,4.00
2019-01-27T23:32:27.266Z,4.00
2019-01-27T23:34:57.199Z,4.00
2019-01-27T23:37:27.095Z,4.10
2019-01-27T23:39:56.959Z,4.20
2019-01-27T23:42:26.915Z,4.20
2019-01-27T23:44:56.692Z,4.20
2019-01-27T23:47:26.714Z,4.20
2019-01-27T23:49:56.960Z,4.30
2019-01-27T23:52:26.747Z,4.30
2019-01-27T23:54:58.358Z,4.30
2019-01-27T23:57:28.201Z,4.40
2019-01-27T23:59:58.303Z,4.40
